sensor_id;sensor_type;location;lat;lon;timestamp;P1;durP1;ratioP1;P2;durP2;ratioP2
8825;SDS011;4449;50.872;4.714;2024-02-16T00:03:28;2.83;;;2.58;;
8825;SDS011;4449;50.872;4.714;2024-02-16T00:05:56;3.65;;;2.90;;
8825;SDS011;4449;50.872;4.714;2024-02-16T00:08:22;2.90;;;2.78;;
8825;SDS011;4449;50.872;4.714;2024-02-16T00:10:50;2.70;;;2.50;;
8825;SDS011;4449;50.872;4.714;2024-02-16T00:13:18;3.10;;;2.60;;
8825;SDS011;4449;50.872;4.714;2024-02-16T00:15:46;2.95;;;2.78;;
8825;SDS011;4449;50.872;4.714;2024-02-16T00:18:13;4.10;;;3.72;;
8825;SDS011;4449;50.872;4.714;2024-02-16T00:20:43;3.08;;;2.88;;
8825;SDS011;4449;50.872;4.714;2024-02-16T00:23:11;4.45;;;2.72;;
8825;SDS011;4449;50.872;4.714;2024-02-16T00:25:39;3.58;;;3.35;;
8825;SDS011;4449;50.872;4.714;2024-02-16T00:28:07;3.17;;;2.97;;
8825;SDS011;4449;50.872;4.714;2024-02-16T00:30:35;2.80;;;2.70;;
8825;SDS011;4449;50.872;4.714;2024-02-16T00:33:04;2.83;;;2.63;;
8825;SDS011;4449;50.872;4.714;2024-02-16T00:35:32;3.58;;;3.10;;
8825;SDS011;4449;50.872;4.714;2024-02-16T00:38:01;3.10;;;2.80;;
8825;SDS011;4449;50.872;4.714;2024-02-16T00:40:29;3.50;;;3.30;;
8825;SDS011;4449;50.872;4.714;2024-02-16T00:42:57;3.22;;;2.92;;
8825;SDS011;4449;50.872;4.714;2024-02-16T00:45:25;2.53;;;2.37;;
8825;SDS011;4449;50.872;4.714;2024-02-16T00:47:52;3.10;;;2.80;;
8825;SDS011;4449;50.872;4.714;2024-02-16T00:50:21;3.08;;;2.78;;
8825;SDS011;4449;50.872;4.714;2024-02-16T00:52:49;2.95;;;2.75;;
8825;SDS011;4449;50.872;4.714;2024-02-16T00:55:18;2.92;;;2.72;;
8825;SDS011;4449;50.872;4.714;2024-02-16T00:57:46;3.22;;;2.95;;
8825;SDS011;4449;50.872;4.714;2024-02-16T01:00:14;3.80;;;3.50;;
8825;SDS011;4449;50.872;4.714;2024-02-16T01:02:42;2.97;;;2.78;;
8825;SDS011;4449;50.872;4.714;2024-02-16T01:05:10;3.08;;;2.88;;
8825;SDS011;4449;50.872;4.714;2024-02-16T01:07:37;2.85;;;2.65;;
8825;SDS011;4449;50.872;4.714;2024-02-16T01:10:07;3.33;;;3.03;;
8825;SDS011;4449;50.872;4.714;2024-02-16T01:12:36;2.88;;;2.67;;
8825;SDS011;4449;50.872;4.714;2024-02-16T01:15:04;2.97;;;2.78;;
8825;SDS011;4449;50.872;4.714;2024-02-16T01:17:32;3.00;;;2.80;;
8825;SDS011;4449;50.872;4.714;2024-02-16T01:19:59;2.97;;;2.70;;
8825;SDS011;4449;50.872;4.714;2024-02-16T01:22:27;5.90;;;2.67;;
8825;SDS011;4449;50.872;4.714;2024-02-16T01:24:55;3.10;;;2.80;;
8825;SDS011;4449;50.872;4.714;2024-02-16T01:27:23;3.03;;;2.83;;
8825;SDS011;4449;50.872;4.714;2024-02-16T01:29:54;2.87;;;2.67;;
8825;SDS011;4449;50.872;4.714;2024-02-16T01:32:22;2.60;;;2.50;;
8825;SDS011;4449;50.872;4.714;2024-02-16T01:34:49;2.83;;;2.70;;
8825;SDS011;4449;50.872;4.714;2024-02-16T01:37:17;3.20;;;3.00;;
8825;SDS011;4449;50.872;4.714;2024-02-16T01:39:45;3.67;;;2.83;;
8825;SDS011;4449;50.872;4.714;2024-02-16T01:42:12;3.30;;;3.08;;
8825;SDS011;4449;50.872;4.714;2024-02-16T01:44:40;2.63;;;2.42;;
8825;SDS011;4449;50.872;4.714;2024-02-16T01:47:09;3.20;;;2.85;;
8825;SDS011;4449;50.872;4.714;2024-02-16T01:49:37;4.25;;;2.72;;
8825;SDS011;4449;50.872;4.714;2024-02-16T01:52:05;3.10;;;2.90;;
8825;SDS011;4449;50.872;4.714;2024-02-16T01:54:33;2.90;;;2.70;;
8825;SDS011;4449;50.872;4.714;2024-02-16T01:57:01;2.88;;;2.67;;
8825;SDS011;4449;50.872;4.714;2024-02-16T01:59:28;3.05;;;2.83;;
8825;SDS011;4449;50.872;4.714;2024-02-16T02:01:58;3.20;;;2.80;;
8825;SDS011;4449;50.872;4.714;2024-02-16T02:04:27;3.03;;;2.83;;
8825;SDS011;4449;50.872;4.714;2024-02-16T02:06:55;3.40;;;3.10;;
8825;SDS011;4449;50.872;4.714;2024-02-16T02:09:23;3.80;;;2.90;;
8825;SDS011;4449;50.872;4.714;2024-02-16T02:11:51;4.07;;;2.97;;
8825;SDS011;4449;50.872;4.714;2024-02-16T02:14:20;3.95;;;2.75;;
8825;SDS011;4449;50.872;4.714;2024-02-16T02:16:51;3.15;;;2.95;;
8825;SDS011;4449;50.872;4.714;2024-02-16T02:19:18;3.13;;;2.85;;
8825;SDS011;4449;50.872;4.714;2024-02-16T02:21:47;2.85;;;2.75;;
8825;SDS011;4449;50.872;4.714;2024-02-16T02:24:17;3.20;;;3.00;;
8825;SDS011;4449;50.872;4.714;2024-02-16T02:26:46;2.90;;;2.70;;
8825;SDS011;4449;50.872;4.714;2024-02-16T02:29:13;3.08;;;2.88;;
8825;SDS011;4449;50.872;4.714;2024-02-16T02:31:41;3.92;;;2.92;;
8825;SDS011;4449;50.872;4.714;2024-02-16T02:34:09;3.05;;;2.85;;
8825;SDS011;4449;50.872;4.714;2024-02-16T02:36:37;4.80;;;3.00;;
8825;SDS011;4449;50.872;4.714;2024-02-16T02:39:05;3.43;;;2.77;;
8825;SDS011;4449;50.872;4.714;2024-02-16T02:41:34;3.20;;;2.90;;
8825;SDS011;4449;50.872;4.714;2024-02-16T02:44:02;3.55;;;3.10;;
8825;SDS011;4449;50.872;4.714;2024-02-16T02:46:31;3.42;;;2.70;;
8825;SDS011;4449;50.872;4.714;2024-02-16T02:48:58;2.83;;;2.55;;
8825;SDS011;4449;50.872;4.714;2024-02-16T02:51:27;4.80;;;3.25;;
8825;SDS011;4449;50.872;4.714;2024-02-16T02:53:55;3.03;;;2.77;;
8825;SDS011;4449;50.872;4.714;2024-02-16T02:56:22;3.45;;;3.20;;
8825;SDS011;4449;50.872;4.714;2024-02-16T02:58:51;2.80;;;2.70;;
8825;SDS011;4449;50.872;4.714;2024-02-16T03:01:19;3.47;;;3.17;;
8825;SDS011;4449;50.872;4.714;2024-02-16T03:03:47;3.75;;;3.10;;
8825;SDS011;4449;50.872;4.714;2024-02-16T03:06:17;3.20;;;2.67;;
8825;SDS011;4449;50.872;4.714;2024-02-16T03:08:45;3.30;;;3.00;;
8825;SDS011;4449;50.872;4.714;2024-02-16T03:11:12;3.67;;;3.20;;
8825;SDS011;4449;50.872;4.714;2024-02-16T03:13:40;4.80;;;3.22;;
8825;SDS011;4449;50.872;4.714;2024-02-16T03:16:09;3.03;;;2.80;;
8825;SDS011;4449;50.872;4.714;2024-02-16T03:18:37;3.63;;;2.90;;
8825;SDS011;4449;50.872;4.714;2024-02-16T03:21:05;3.63;;;2.78;;
8825;SDS011;4449;50.872;4.714;2024-02-16T03:23:33;3.17;;;2.88;;
8825;SDS011;4449;50.872;4.714;2024-02-16T03:26:00;4.13;;;2.90;;
8825;SDS011;4449;50.872;4.714;2024-02-16T03:28:28;3.35;;;3.10;;
8825;SDS011;4449;50.872;4.714;2024-02-16T03:30:56;3.87;;;2.93;;
8825;SDS011;4449;50.872;4.714;2024-02-16T03:33:25;3.00;;;2.80;;
8825;SDS011;4449;50.872;4.714;2024-02-16T03:35:53;3.65;;;2.83;;
8825;SDS011;4449;50.872;4.714;2024-02-16T03:38:20;3.50;;;2.87;;
8825;SDS011;4449;50.872;4.714;2024-02-16T03:40:48;3.50;;;3.20;;
8825;SDS011;4449;50.872;4.714;2024-02-16T03:43:16;4.03;;;3.15;;
8825;SDS011;4449;50.872;4.714;2024-02-16T03:45:44;3.55;;;3.10;;
8825;SDS011;4449;50.872;4.714;2024-02-16T03:48:11;3.92;;;2.88;;
8825;SDS011;4449;50.872;4.714;2024-02-16T03:50:40;4.23;;;2.90;;
8825;SDS011;4449;50.872;4.714;2024-02-16T03:53:08;3.58;;;3.13;;
8825;SDS011;4449;50.872;4.714;2024-02-16T03:55:36;3.13;;;2.92;;
8825;SDS011;4449;50.872;4.714;2024-02-16T03:58:03;3.40;;;3.10;;
8825;SDS011;4449;50.872;4.714;2024-02-16T04:00:32;3.65;;;2.90;;
8825;SDS011;4449;50.872;4.714;2024-02-16T04:02:59;3.00;;;2.70;;
8825;SDS011;4449;50.872;4.714;2024-02-16T04:05:28;3.47;;;3.20;;
8825;SDS011;4449;50.872;4.714;2024-02-16T04:07:59;3.13;;;2.92;;
8825;SDS011;4449;50.872;4.714;2024-02-16T04:10:29;3.60;;;3.22;;
8825;SDS011;4449;50.872;4.714;2024-02-16T04:12:56;5.00;;;3.40;;
8825;SDS011;4449;50.872;4.714;2024-02-16T04:15:24;2.92;;;2.75;;
8825;SDS011;4449;50.872;4.714;2024-02-16T04:17:52;3.67;;;3.10;;
8825;SDS011;4449;50.872;4.714;2024-02-16T04:20:20;3.30;;;3.05;;
8825;SDS011;4449;50.872;4.714;2024-02-16T04:22:48;3.40;;;3.08;;
8825;SDS011;4449;50.872;4.714;2024-02-16T04:25:17;4.43;;;3.30;;
8825;SDS011;4449;50.872;4.714;2024-02-16T04:27:45;3.47;;;3.15;;
8825;SDS011;4449;50.872;4.714;2024-02-16T04:30:13;4.53;;;3.37;;
8825;SDS011;4449;50.872;4.714;2024-02-16T04:32:40;3.60;;;3.30;;
8825;SDS011;4449;50.872;4.714;2024-02-16T04:35:08;3.38;;;3.17;;
8825;SDS011;4449;50.872;4.714;2024-02-16T04:37:37;3.95;;;3.35;;
8825;SDS011;4449;50.872;4.714;2024-02-16T04:40:05;3.50;;;3.13;;
8825;SDS011;4449;50.872;4.714;2024-02-16T04:42:35;3.83;;;3.20;;
8825;SDS011;4449;50.872;4.714;2024-02-16T04:45:03;3.40;;;3.10;;
8825;SDS011;4449;50.872;4.714;2024-02-16T04:47:30;3.42;;;3.22;;
8825;SDS011;4449;50.872;4.714;2024-02-16T04:49:58;3.92;;;3.35;;
8825;SDS011;4449;50.872;4.714;2024-02-16T04:52:25;5.22;;;3.45;;
8825;SDS011;4449;50.872;4.714;2024-02-16T04:54:53;3.50;;;3.20;;
8825;SDS011;4449;50.872;4.714;2024-02-16T04:57:21;3.63;;;3.10;;
8825;SDS011;4449;50.872;4.714;2024-02-16T04:59:50;3.78;;;3.10;;
8825;SDS011;4449;50.872;4.714;2024-02-16T05:02:18;3.95;;;3.50;;
8825;SDS011;4449;50.872;4.714;2024-02-16T05:04:46;4.95;;;3.65;;
8825;SDS011;4449;50.872;4.714;2024-02-16T05:07:13;3.92;;;3.13;;
8825;SDS011;4449;50.872;4.714;2024-02-16T05:09:41;4.38;;;3.25;;
8825;SDS011;4449;50.872;4.714;2024-02-16T05:12:09;4.32;;;3.50;;
8825;SDS011;4449;50.872;4.714;2024-02-16T05:14:37;5.10;;;3.50;;
8825;SDS011;4449;50.872;4.714;2024-02-16T05:17:07;3.50;;;3.22;;
8825;SDS011;4449;50.872;4.714;2024-02-16T05:19:35;3.85;;;3.40;;
8825;SDS011;4449;50.872;4.714;2024-02-16T05:22:03;3.50;;;3.20;;
8825;SDS011;4449;50.872;4.714;2024-02-16T05:24:30;3.77;;;3.10;;
8825;SDS011;4449;50.872;4.714;2024-02-16T05:26:58;4.57;;;3.22;;
8825;SDS011;4449;50.872;4.714;2024-02-16T05:29:26;3.83;;;3.10;;
8825;SDS011;4449;50.872;4.714;2024-02-16T05:31:54;4.07;;;3.38;;
8825;SDS011;4449;50.872;4.714;2024-02-16T05:34:24;5.03;;;3.33;;
8825;SDS011;4449;50.872;4.714;2024-02-16T05:36:51;4.05;;;3.10;;
8825;SDS011;4449;50.872;4.714;2024-02-16T05:39:19;5.65;;;3.42;;
8825;SDS011;4449;50.872;4.714;2024-02-16T05:41:52;4.30;;;3.47;;
8825;SDS011;4449;50.872;4.714;2024-02-16T05:44:20;4.47;;;3.37;;
8825;SDS011;4449;50.872;4.714;2024-02-16T05:46:47;4.28;;;3.35;;
8825;SDS011;4449;50.872;4.714;2024-02-16T05:49:15;4.32;;;3.13;;
8825;SDS011;4449;50.872;4.714;2024-02-16T05:51:44;3.75;;;3.45;;
8825;SDS011;4449;50.872;4.714;2024-02-16T05:54:32;4.80;;;3.22;;
8825;SDS011;4449;50.872;4.714;2024-02-16T05:57:00;4.20;;;3.60;;
8825;SDS011;4449;50.872;4.714;2024-02-16T05:59:29;3.55;;;3.10;;
8825;SDS011;4449;50.872;4.714;2024-02-16T06:01:58;3.95;;;3.60;;
8825;SDS011;4449;50.872;4.714;2024-02-16T06:04:25;3.67;;;3.38;;
8825;SDS011;4449;50.872;4.714;2024-02-16T06:06:55;5.10;;;3.67;;
8825;SDS011;4449;50.872;4.714;2024-02-16T06:09:22;4.88;;;3.47;;
8825;SDS011;4449;50.872;4.714;2024-02-16T06:11:50;5.20;;;3.90;;
8825;SDS011;4449;50.872;4.714;2024-02-16T06:14:18;4.60;;;3.63;;
8825;SDS011;4449;50.872;4.714;2024-02-16T06:16:48;3.85;;;3.55;;
8825;SDS011;4449;50.872;4.714;2024-02-16T06:19:16;4.63;;;3.50;;
8825;SDS011;4449;50.872;4.714;2024-02-16T06:21:43;3.50;;;3.20;;
8825;SDS011;4449;50.872;4.714;2024-02-16T06:24:12;6.00;;;3.25;;
8825;SDS011;4449;50.872;4.714;2024-02-16T06:26:40;3.90;;;3.60;;
8825;SDS011;4449;50.872;4.714;2024-02-16T06:29:08;5.00;;;3.50;;
8825;SDS011;4449;50.872;4.714;2024-02-16T06:31:36;5.28;;;3.75;;
8825;SDS011;4449;50.872;4.714;2024-02-16T06:34:04;3.95;;;3.47;;
8825;SDS011;4449;50.872;4.714;2024-02-16T06:36:31;3.90;;;3.30;;
8825;SDS011;4449;50.872;4.714;2024-02-16T06:39:00;5.53;;;3.58;;
8825;SDS011;4449;50.872;4.714;2024-02-16T06:41:30;5.47;;;3.45;;
8825;SDS011;4449;50.872;4.714;2024-02-16T06:43:57;5.75;;;3.53;;
8825;SDS011;4449;50.872;4.714;2024-02-16T06:46:25;5.63;;;3.70;;
8825;SDS011;4449;50.872;4.714;2024-02-16T06:48:54;4.55;;;3.42;;
8825;SDS011;4449;50.872;4.714;2024-02-16T06:51:23;5.53;;;3.85;;
8825;SDS011;4449;50.872;4.714;2024-02-16T06:53:53;5.73;;;3.53;;
8825;SDS011;4449;50.872;4.714;2024-02-16T06:56:21;5.03;;;3.40;;
8825;SDS011;4449;50.872;4.714;2024-02-16T06:58:50;5.90;;;3.58;;
8825;SDS011;4449;50.872;4.714;2024-02-16T07:01:19;5.47;;;3.53;;
8825;SDS011;4449;50.872;4.714;2024-02-16T07:03:47;4.75;;;3.45;;
8825;SDS011;4449;50.872;4.714;2024-02-16T07:06:16;5.80;;;3.63;;
8825;SDS011;4449;50.872;4.714;2024-02-16T07:08:44;4.28;;;3.50;;
8825;SDS011;4449;50.872;4.714;2024-02-16T07:11:11;5.57;;;3.58;;
8825;SDS011;4449;50.872;4.714;2024-02-16T07:13:39;5.28;;;3.47;;
8825;SDS011;4449;50.872;4.714;2024-02-16T07:16:09;4.45;;;3.80;;
8825;SDS011;4449;50.872;4.714;2024-02-16T07:18:36;4.63;;;3.42;;
8825;SDS011;4449;50.872;4.714;2024-02-16T07:21:04;5.80;;;3.45;;
8825;SDS011;4449;50.872;4.714;2024-02-16T07:23:32;4.28;;;3.88;;
8825;SDS011;4449;50.872;4.714;2024-02-16T07:25:59;6.00;;;4.05;;
8825;SDS011;4449;50.872;4.714;2024-02-16T07:28:28;6.05;;;4.05;;
8825;SDS011;4449;50.872;4.714;2024-02-16T07:30:56;3.95;;;3.60;;
8825;SDS011;4449;50.872;4.714;2024-02-16T07:33:25;5.95;;;4.00;;
8825;SDS011;4449;50.872;4.714;2024-02-16T07:35:53;4.03;;;3.67;;
8825;SDS011;4449;50.872;4.714;2024-02-16T07:38:21;6.88;;;4.30;;
8825;SDS011;4449;50.872;4.714;2024-02-16T07:40:49;5.35;;;3.72;;
8825;SDS011;4449;50.872;4.714;2024-02-16T07:43:17;4.20;;;3.60;;
8825;SDS011;4449;50.872;4.714;2024-02-16T07:45:44;6.20;;;3.90;;
8825;SDS011;4449;50.872;4.714;2024-02-16T07:48:12;5.07;;;3.72;;
8825;SDS011;4449;50.872;4.714;2024-02-16T07:50:41;5.43;;;3.77;;
8825;SDS011;4449;50.872;4.714;2024-02-16T07:53:09;6.73;;;3.80;;
8825;SDS011;4449;50.872;4.714;2024-02-16T07:55:37;5.45;;;4.03;;
8825;SDS011;4449;50.872;4.714;2024-02-16T07:58:04;5.90;;;4.32;;
8825;SDS011;4449;50.872;4.714;2024-02-16T08:00:32;10.52;;;4.28;;
8825;SDS011;4449;50.872;4.714;2024-02-16T08:02:59;4.47;;;3.75;;
8825;SDS011;4449;50.872;4.714;2024-02-16T08:05:27;5.13;;;4.10;;
8825;SDS011;4449;50.872;4.714;2024-02-16T08:07:57;5.63;;;4.10;;
8825;SDS011;4449;50.872;4.714;2024-02-16T08:10:24;4.30;;;3.88;;
8825;SDS011;4449;50.872;4.714;2024-02-16T08:12:52;7.97;;;3.90;;
8825;SDS011;4449;50.872;4.714;2024-02-16T08:15:20;6.15;;;4.28;;
8825;SDS011;4449;50.872;4.714;2024-02-16T08:17:49;6.97;;;4.10;;
8825;SDS011;4449;50.872;4.714;2024-02-16T08:20:17;7.27;;;4.80;;
8825;SDS011;4449;50.872;4.714;2024-02-16T08:22:46;6.53;;;4.43;;
8825;SDS011;4449;50.872;4.714;2024-02-16T08:25:15;6.45;;;4.65;;
8825;SDS011;4449;50.872;4.714;2024-02-16T08:27:42;6.75;;;4.90;;
8825;SDS011;4449;50.872;4.714;2024-02-16T08:30:10;7.57;;;4.72;;
8825;SDS011;4449;50.872;4.714;2024-02-16T08:32:38;5.70;;;4.90;;
8825;SDS011;4449;50.872;4.714;2024-02-16T08:35:06;7.90;;;5.07;;
8825;SDS011;4449;50.872;4.714;2024-02-16T08:37:34;6.93;;;5.53;;
8825;SDS011;4449;50.872;4.714;2024-02-16T08:40:02;5.65;;;4.63;;
8825;SDS011;4449;50.872;4.714;2024-02-16T08:42:31;8.02;;;5.50;;
8825;SDS011;4449;50.872;4.714;2024-02-16T08:44:59;7.72;;;5.10;;
8825;SDS011;4449;50.872;4.714;2024-02-16T08:47:27;8.45;;;5.40;;
8825;SDS011;4449;50.872;4.714;2024-02-16T08:49:55;5.83;;;5.10;;
8825;SDS011;4449;50.872;4.714;2024-02-16T08:52:22;5.97;;;5.30;;
8825;SDS011;4449;50.872;4.714;2024-02-16T08:54:50;6.53;;;5.20;;
8825;SDS011;4449;50.872;4.714;2024-02-16T08:57:18;5.40;;;4.85;;
8825;SDS011;4449;50.872;4.714;2024-02-16T08:59:47;6.72;;;5.10;;
8825;SDS011;4449;50.872;4.714;2024-02-16T09:02:15;7.95;;;5.20;;
8825;SDS011;4449;50.872;4.714;2024-02-16T09:04:42;7.47;;;4.90;;
8825;SDS011;4449;50.872;4.714;2024-02-16T09:07:10;5.47;;;4.80;;
8825;SDS011;4449;50.872;4.714;2024-02-16T09:09:38;7.88;;;5.43;;
8825;SDS011;4449;50.872;4.714;2024-02-16T09:12:06;7.53;;;4.90;;
8825;SDS011;4449;50.872;4.714;2024-02-16T09:14:33;8.20;;;5.50;;
8825;SDS011;4449;50.872;4.714;2024-02-16T09:17:03;5.60;;;4.95;;
8825;SDS011;4449;50.872;4.714;2024-02-16T09:19:30;8.48;;;4.97;;
8825;SDS011;4449;50.872;4.714;2024-02-16T09:34:36;6.57;;;4.88;;
8825;SDS011;4449;50.872;4.714;2024-02-16T09:37:04;9.40;;;5.47;;
8825;SDS011;4449;50.872;4.714;2024-02-16T09:39:31;7.03;;;4.85;;
8825;SDS011;4449;50.872;4.714;2024-02-16T09:41:59;7.30;;;4.95;;
8825;SDS011;4449;50.872;4.714;2024-02-16T09:44:27;6.97;;;4.80;;
8825;SDS011;4449;50.872;4.714;2024-02-16T09:46:56;6.40;;;4.93;;
8825;SDS011;4449;50.872;4.714;2024-02-16T09:49:24;5.53;;;4.80;;
8825;SDS011;4449;50.872;4.714;2024-02-16T09:51:53;8.80;;;4.70;;
8825;SDS011;4449;50.872;4.714;2024-02-16T09:54:24;12.98;;;6.05;;
8825;SDS011;4449;50.872;4.714;2024-02-16T09:56:51;7.63;;;5.60;;
8825;SDS011;4449;50.872;4.714;2024-02-16T09:59:19;9.05;;;5.30;;
8825;SDS011;4449;50.872;4.714;2024-02-16T10:01:47;8.43;;;5.63;;
8825;SDS011;4449;50.872;4.714;2024-02-16T10:04:15;10.25;;;5.72;;
8825;SDS011;4449;50.872;4.714;2024-02-16T10:06:46;7.07;;;5.10;;
8825;SDS011;4449;50.872;4.714;2024-02-16T10:09:23;7.80;;;5.78;;
8825;SDS011;4449;50.872;4.714;2024-02-16T10:11:51;9.23;;;6.10;;
8825;SDS011;4449;50.872;4.714;2024-02-16T10:14:18;6.07;;;5.47;;
8825;SDS011;4449;50.872;4.714;2024-02-16T10:16:47;8.35;;;6.00;;
8825;SDS011;4449;50.872;4.714;2024-02-16T10:19:17;9.10;;;6.80;;
8825;SDS011;4449;50.872;4.714;2024-02-16T10:21:45;9.85;;;6.28;;
8825;SDS011;4449;50.872;4.714;2024-02-16T10:24:12;8.00;;;6.03;;
8825;SDS011;4449;50.872;4.714;2024-02-16T10:26:42;11.70;;;6.30;;
8825;SDS011;4449;50.872;4.714;2024-02-16T10:29:10;10.47;;;6.37;;
8825;SDS011;4449;50.872;4.714;2024-02-16T10:31:39;10.52;;;6.28;;
8825;SDS011;4449;50.872;4.714;2024-02-16T10:34:06;9.38;;;5.60;;
8825;SDS011;4449;50.872;4.714;2024-02-16T10:36:35;10.90;;;6.32;;
8825;SDS011;4449;50.872;4.714;2024-02-16T10:39:03;8.32;;;6.22;;
8825;SDS011;4449;50.872;4.714;2024-02-16T10:41:33;10.85;;;7.07;;
8825;SDS011;4449;50.872;4.714;2024-02-16T10:44:03;12.98;;;7.18;;
8825;SDS011;4449;50.872;4.714;2024-02-16T10:46:31;14.85;;;7.40;;
8825;SDS011;4449;50.872;4.714;2024-02-16T10:48:59;9.32;;;7.25;;
8825;SDS011;4449;50.872;4.714;2024-02-16T10:51:31;12.48;;;7.38;;
8825;SDS011;4449;50.872;4.714;2024-02-16T10:54:01;8.90;;;6.95;;
8825;SDS011;4449;50.872;4.714;2024-02-16T10:56:34;11.98;;;7.55;;
8825;SDS011;4449;50.872;4.714;2024-02-16T10:59:03;11.20;;;7.35;;
8825;SDS011;4449;50.872;4.714;2024-02-16T11:01:33;13.98;;;7.82;;
8825;SDS011;4449;50.872;4.714;2024-02-16T11:04:04;12.93;;;7.55;;
8825;SDS011;4449;50.872;4.714;2024-02-16T11:06:44;11.67;;;7.70;;
8825;SDS011;4449;50.872;4.714;2024-02-16T11:09:22;10.95;;;7.43;;
8825;SDS011;4449;50.872;4.714;2024-02-16T11:11:53;12.65;;;7.40;;
8825;SDS011;4449;50.872;4.714;2024-02-16T11:14:22;9.82;;;7.22;;
8825;SDS011;4449;50.872;4.714;2024-02-16T11:16:53;12.13;;;8.05;;
8825;SDS011;4449;50.872;4.714;2024-02-16T11:19:22;13.13;;;7.97;;
8825;SDS011;4449;50.872;4.714;2024-02-16T12:19:49;16.48;;;10.80;;
8825;SDS011;4449;50.872;4.714;2024-02-16T12:22:17;11.48;;;10.27;;
8825;SDS011;4449;50.872;4.714;2024-02-16T12:24:45;11.35;;;10.18;;
8825;SDS011;4449;50.872;4.714;2024-02-16T12:27:13;14.80;;;10.43;;
8825;SDS011;4449;50.872;4.714;2024-02-16T12:29:41;12.90;;;9.82;;
8825;SDS011;4449;50.872;4.714;2024-02-16T12:32:09;11.98;;;9.70;;
8825;SDS011;4449;50.872;4.714;2024-02-16T12:34:37;13.48;;;9.63;;
8825;SDS011;4449;50.872;4.714;2024-02-16T12:37:06;10.73;;;9.57;;
8825;SDS011;4449;50.872;4.714;2024-02-16T12:39:35;14.25;;;9.90;;
8825;SDS011;4449;50.872;4.714;2024-02-16T12:42:03;13.07;;;9.32;;
8825;SDS011;4449;50.872;4.714;2024-02-16T12:44:31;10.38;;;8.52;;
8825;SDS011;4449;50.872;4.714;2024-02-16T12:46:59;9.15;;;8.18;;
8825;SDS011;4449;50.872;4.714;2024-02-16T12:49:27;8.50;;;7.70;;
8825;SDS011;4449;50.872;4.714;2024-02-16T12:51:54;7.90;;;6.72;;
8825;SDS011;4449;50.872;4.714;2024-02-16T12:54:24;7.35;;;6.70;;
8825;SDS011;4449;50.872;4.714;2024-02-16T12:56:51;6.75;;;6.20;;
8825;SDS011;4449;50.872;4.714;2024-02-16T12:59:19;6.97;;;6.38;;
8825;SDS011;4449;50.872;4.714;2024-02-16T13:01:47;6.68;;;6.07;;
8825;SDS011;4449;50.872;4.714;2024-02-16T13:04:15;5.87;;;5.33;;
8825;SDS011;4449;50.872;4.714;2024-02-16T13:06:46;5.23;;;4.93;;
8825;SDS011;4449;50.872;4.714;2024-02-16T13:09:14;5.22;;;4.82;;
8825;SDS011;4449;50.872;4.714;2024-02-16T13:11:43;4.80;;;4.50;;
8825;SDS011;4449;50.872;4.714;2024-02-16T13:14:11;5.20;;;4.80;;
8825;SDS011;4449;50.872;4.714;2024-02-16T13:16:38;5.40;;;5.10;;
8825;SDS011;4449;50.872;4.714;2024-02-16T13:19:06;5.30;;;5.00;;
8825;SDS011;4449;50.872;4.714;2024-02-16T13:21:34;5.40;;;5.05;;
8825;SDS011;4449;50.872;4.714;2024-02-16T13:24:01;5.47;;;5.13;;
8825;SDS011;4449;50.872;4.714;2024-02-16T13:26:30;5.90;;;5.50;;
8825;SDS011;4449;50.872;4.714;2024-02-16T13:28:59;6.20;;;5.80;;
8825;SDS011;4449;50.872;4.714;2024-02-16T13:31:26;6.28;;;5.85;;
8825;SDS011;4449;50.872;4.714;2024-02-16T13:33:54;6.65;;;6.25;;
8825;SDS011;4449;50.872;4.714;2024-02-16T13:36:22;6.68;;;6.18;;
8825;SDS011;4449;50.872;4.714;2024-02-16T13:38:50;6.88;;;6.28;;
8825;SDS011;4449;50.872;4.714;2024-02-16T13:41:18;6.97;;;6.47;;
8825;SDS011;4449;50.872;4.714;2024-02-16T13:43:46;6.30;;;5.90;;
8825;SDS011;4449;50.872;4.714;2024-02-16T13:46:15;7.80;;;7.13;;
8825;SDS011;4449;50.872;4.714;2024-02-16T13:48:43;7.18;;;6.68;;
8825;SDS011;4449;50.872;4.714;2024-02-16T13:51:11;7.43;;;6.68;;
8825;SDS011;4449;50.872;4.714;2024-02-16T13:53:38;7.43;;;6.72;;
8825;SDS011;4449;50.872;4.714;2024-02-16T13:56:06;7.60;;;6.95;;
8825;SDS011;4449;50.872;4.714;2024-02-16T13:58:34;9.07;;;8.23;;
8825;SDS011;4449;50.872;4.714;2024-02-16T14:01:02;13.98;;;7.90;;
8825;SDS011;4449;50.872;4.714;2024-02-16T14:03:31;7.55;;;6.75;;
8825;SDS011;4449;50.872;4.714;2024-02-16T14:06:01;8.65;;;7.28;;
8825;SDS011;4449;50.872;4.714;2024-02-16T14:08:30;8.23;;;7.40;;
8825;SDS011;4449;50.872;4.714;2024-02-16T14:10:57;8.70;;;7.78;;
8825;SDS011;4449;50.872;4.714;2024-02-16T14:13:25;9.50;;;8.60;;
8825;SDS011;4449;50.872;4.714;2024-02-16T14:15:54;9.73;;;9.00;;
8825;SDS011;4449;50.872;4.714;2024-02-16T14:18:22;10.18;;;9.20;;
8825;SDS011;4449;50.872;4.714;2024-02-16T14:20:51;10.18;;;9.48;;
8825;SDS011;4449;50.872;4.714;2024-02-16T14:23:18;12.57;;;11.27;;
8825;SDS011;4449;50.872;4.714;2024-02-16T14:25:46;16.15;;;12.48;;
8825;SDS011;4449;50.872;4.714;2024-02-16T14:28:13;12.90;;;11.90;;
8825;SDS011;4449;50.872;4.714;2024-02-16T14:30:41;13.82;;;12.63;;
8825;SDS011;4449;50.872;4.714;2024-02-16T14:33:09;13.60;;;12.50;;
8825;SDS011;4449;50.872;4.714;2024-02-16T14:35:37;14.52;;;13.43;;
8825;SDS011;4449;50.872;4.714;2024-02-16T14:38:06;14.02;;;12.95;;
8825;SDS011;4449;50.872;4.714;2024-02-16T14:40:34;14.10;;;12.95;;
8825;SDS011;4449;50.872;4.714;2024-02-16T14:43:02;13.90;;;12.80;;
8825;SDS011;4449;50.872;4.714;2024-02-16T14:45:29;13.75;;;12.73;;
8825;SDS011;4449;50.872;4.714;2024-02-16T14:47:57;14.25;;;13.18;;
8825;SDS011;4449;50.872;4.714;2024-02-16T14:50:25;14.13;;;13.07;;
8825;SDS011;4449;50.872;4.714;2024-02-16T14:52:52;12.50;;;11.60;;
8825;SDS011;4449;50.872;4.714;2024-02-16T14:55:22;10.40;;;9.70;;
8825;SDS011;4449;50.872;4.714;2024-02-16T14:57:51;11.45;;;10.55;;
8825;SDS011;4449;50.872;4.714;2024-02-16T15:00:19;9.15;;;8.55;;
8825;SDS011;4449;50.872;4.714;2024-02-16T15:02:50;9.80;;;9.18;;
8825;SDS011;4449;50.872;4.714;2024-02-16T15:05:17;9.10;;;8.60;;
8825;SDS011;4449;50.872;4.714;2024-02-16T15:07:46;10.10;;;9.30;;
8825;SDS011;4449;50.872;4.714;2024-02-16T15:10:15;10.00;;;9.20;;
8825;SDS011;4449;50.872;4.714;2024-02-16T15:12:44;9.97;;;9.27;;
8825;SDS011;4449;50.872;4.714;2024-02-16T15:15:12;11.15;;;10.35;;
8825;SDS011;4449;50.872;4.714;2024-02-16T15:17:40;12.02;;;10.93;;
8825;SDS011;4449;50.872;4.714;2024-02-16T15:20:08;14.40;;;13.30;;
8825;SDS011;4449;50.872;4.714;2024-02-16T15:22:36;16.50;;;15.23;;
8825;SDS011;4449;50.872;4.714;2024-02-16T15:25:04;18.15;;;16.60;;
8825;SDS011;4449;50.872;4.714;2024-02-16T15:27:31;20.55;;;18.83;;
8825;SDS011;4449;50.872;4.714;2024-02-16T15:30:01;20.38;;;18.77;;
8825;SDS011;4449;50.872;4.714;2024-02-16T15:32:28;22.88;;;20.98;;
8825;SDS011;4449;50.872;4.714;2024-02-16T15:50:17;23.92;;;21.83;;
8825;SDS011;4449;50.872;4.714;2024-02-16T15:52:44;21.75;;;19.85;;
8825;SDS011;4449;50.872;4.714;2024-02-16T15:55:12;22.42;;;19.00;;
8825;SDS011;4449;50.872;4.714;2024-02-16T15:57:40;20.30;;;18.40;;
8825;SDS011;4449;50.872;4.714;2024-02-16T16:00:08;18.05;;;16.48;;
8825;SDS011;4449;50.872;4.714;2024-02-16T16:02:37;17.67;;;16.35;;
8825;SDS011;4449;50.872;4.714;2024-02-16T16:05:05;18.63;;;17.02;;
8825;SDS011;4449;50.872;4.714;2024-02-16T16:07:35;17.90;;;16.23;;
8825;SDS011;4449;50.872;4.714;2024-02-16T16:10:03;17.20;;;15.60;;
8825;SDS011;4449;50.872;4.714;2024-02-16T16:12:31;13.17;;;11.93;;
8825;SDS011;4449;50.872;4.714;2024-02-16T16:14:58;13.15;;;11.98;;
8825;SDS011;4449;50.872;4.714;2024-02-16T16:17:26;12.70;;;11.50;;
8825;SDS011;4449;50.872;4.714;2024-02-16T16:19:54;11.00;;;10.20;;
8825;SDS011;4449;50.872;4.714;2024-02-16T16:22:22;11.20;;;10.40;;
8825;SDS011;4449;50.872;4.714;2024-02-16T16:24:51;10.20;;;9.45;;
8825;SDS011;4449;50.872;4.714;2024-02-16T16:27:19;9.25;;;8.48;;
8825;SDS011;4449;50.872;4.714;2024-02-16T16:29:47;9.05;;;8.30;;
8825;SDS011;4449;50.872;4.714;2024-02-16T16:32:15;8.30;;;7.60;;
8825;SDS011;4449;50.872;4.714;2024-02-16T16:34:42;7.65;;;7.20;;
8825;SDS011;4449;50.872;4.714;2024-02-16T16:37:10;7.22;;;6.75;;
8825;SDS011;4449;50.872;4.714;2024-02-16T16:39:38;6.70;;;6.30;;
8825;SDS011;4449;50.872;4.714;2024-02-16T16:42:08;7.20;;;6.68;;
8825;SDS011;4449;50.872;4.714;2024-02-16T16:44:35;7.05;;;6.65;;